Time;durP1;ratioP1;P1;durP2;ratioP2;P2;SDS_P1;SDS_P2;PMS_P1;PMS_P2;Temp;Humidity;BMP_temperature;BMP_pressure;BME280_temperature;BME280_humidity;BME280_pressure;Samples;Min_cycle;Max_cycle;Signal;HPM_P1;HPM_P2
2023/01/09 00:01:18;;;;;;;5.88;4.47;;;;;;;5.54;54.55;93541.91;4966420;28;20585;-77
2023/01/09 00:03:44;;;;;;;7.18;5.72;;;;;;;5.73;53.92;93543.00;4967704;28;20579;-77
2023/01/09 00:06:09;;;;;;;10.98;8.27;;;;;;;5.58;53.88;93542.34;4942834;28;20144;-78
2023/01/09 00:08:35;;;;;;;8.15;6.10;;;;;;;4.88;55.50;93554.53;4969583;28;20668;-77
2023/01/09 00:11:00;;;;;;;11.27;8.63;;;;;;;4.69;56.01;93548.94;4967858;28;20590;-78
2023/01/09 00:13:25;;;;;;;2.15;1.60;;;;;;;4.45;56.13;93537.81;4957303;28;20087;-78
2023/01/09 00:15:51;;;;;;;2.17;1.88;;;;;;;3.64;59.11;93533.63;4956534;28;20069;-77
2023/01/09 00:18:16;;;;;;;1.15;1.05;;;;;;;2.37;62.76;93543.06;4973904;28;20160;-78
2023/01/09 00:20:42;;;;;;;1.55;1.45;;;;;;;3.60;61.06;93533.16;4968376;28;20569;-77
2023/01/09 00:23:07;;;;;;;2.42;2.00;;;;;;;2.59;63.81;93532.66;4972887;28;20111;-77
2023/01/09 00:25:32;;;;;;;1.13;1.02;;;;;;;3.03;61.11;93549.44;4967225;28;20097;-78
2023/01/09 00:27:58;;;;;;;2.05;1.60;;;;;;;1.90;64.02;93549.34;4942544;28;20472;-78
2023/01/09 00:30:23;;;;;;;1.08;1.08;;;;;;;2.25;62.05;93541.84;4986223;28;20524;-78
2023/01/09 00:32:49;;;;;;;7.80;5.28;;;;;;;3.26;60.44;93524.03;4967446;28;20209;-77
2023/01/09 00:35:15;;;;;;;2.92;2.03;;;;;;;2.82;59.99;93538.84;4966716;28;20093;-78
2023/01/09 00:37:40;;;;;;;4.63;3.53;;;;;;;2.51;62.76;93544.06;4966562;28;20575;-78
2023/01/09 00:40:06;;;;;;;0.70;0.70;;;;;;;2.50;61.87;93531.09;4970910;28;20123;-78
2023/01/09 00:42:32;;;;;;;4.90;3.38;;;;;;;2.95;59.98;93535.56;4984989;28;20110;-78
2023/01/09 00:44:59;;;;;;;1.23;0.90;;;;;;;3.28;58.51;93548.34;4956242;28;20073;-78
2023/01/09 00:47:32;;;;;;;0.52;0.52;;;;;;;2.27;60.42;93550.34;4971023;28;20065;-78
2023/01/09 00:49:59;;;;;;;1.92;1.80;;;;;;;2.89;60.21;93543.19;4939998;28;20624;-78
2023/01/09 00:52:24;;;;;;;5.63;2.35;;;;;;;2.37;62.48;93536.97;4968894;28;20079;-78
2023/01/09 00:54:50;;;;;;;0.52;0.52;;;;;;;2.68;60.49;93548.38;4966289;28;20130;-78
2023/01/09 00:57:15;;;;;;;2.25;1.77;;;;;;;2.64;60.20;93548.72;4958824;28;20503;-79
2023/01/09 00:59:41;;;;;;;1.48;0.82;;;;;;;0.92;65.35;93551.25;4972035;28;20648;-78
2023/01/09 01:02:06;;;;;;;0.70;0.70;;;;;;;2.19;62.32;93561.75;4973334;28;20099;-78
2023/01/09 01:09:59;;;;;;;0.40;0.40;;;;;;;0.95;65.76;93569.25;4958217;28;20663;-78
2023/01/09 01:12:25;;;;;;;0.30;0.30;;;;;;;0.53;66.51;93565.91;4968622;28;20078;-77
2023/01/09 01:14:52;;;;;;;0.50;0.40;;;;;;;0.64;66.85;93564.75;4950045;28;20106;-77
2023/01/09 01:17:17;;;;;;;0.45;0.38;;;;;;;0.68;66.42;93560.00;4951920;28;20435;-77
2023/01/09 01:19:43;;;;;;;1.05;0.32;;;;;;;0.87;66.05;93550.13;4966683;28;20075;-78
2023/01/09 01:22:08;;;;;;;0.90;0.40;;;;;;;1.14;64.74;93555.91;4953671;28;20113;-78
2023/01/09 01:24:33;;;;;;;0.40;0.40;;;;;;;1.64;62.36;93550.47;4968124;28;20439;-77
2023/01/09 01:26:59;;;;;;;1.75;0.52;;;;;;;2.28;62.11;93544.09;4965993;28;20117;-78
2023/01/09 01:29:24;;;;;;;0.10;0.10;;;;;;;1.83;62.36;93552.66;4949809;28;20623;-77
2023/01/09 01:31:50;;;;;;;0.40;0.40;;;;;;;2.20;61.33;93536.28;4969519;28;20112;-78
2023/01/09 01:34:16;;;;;;;0.50;0.40;;;;;;;1.94;61.88;93548.00;4967326;28;20102;-78
2023/01/09 01:36:41;;;;;;;0.85;0.85;;;;;;;2.42;60.42;93550.41;4982220;28;20129;-78
2023/01/09 01:39:06;;;;;;;1.23;0.50;;;;;;;2.01;62.47;93554.19;4967600;28;20575;-78
2023/01/09 01:41:32;;;;;;;0.35;0.30;;;;;;;1.98;61.94;93562.41;4981537;28;20097;-78
2023/01/09 01:43:59;;;;;;;0.65;0.52;;;;;;;1.98;62.05;93547.44;4969262;28;20095;-78
2023/01/09 01:46:25;;;;;;;1.10;0.50;;;;;;;2.02;62.20;93547.94;4965729;28;20094;-77
2023/01/09 01:48:54;;;;;;;0.60;0.60;;;;;;;2.35;61.04;93531.88;4952196;28;20118;-78
2023/01/09 01:51:19;;;;;;;1.10;0.63;;;;;;;2.47;59.49;93528.84;4979904;28;20124;-78
2023/01/09 01:53:47;;;;;;;0.40;0.38;;;;;;;2.59;60.05;93535.28;4935839;28;20745;-78
2023/01/09 01:56:26;;;;;;;0.65;0.57;;;;;;;2.06;60.28;93546.59;4951698;28;20784;-78
2023/01/09 01:59:00;;;;;;;0.38;0.38;;;;;;;2.77;59.18;93542.00;4963305;28;20100;-78
2023/01/09 02:01:25;;;;;;;0.50;0.50;;;;;;;2.03;60.12;93544.31;4964502;28;20301;-77
2023/01/09 02:03:51;;;;;;;0.38;0.38;;;;;;;3.00;58.38;93541.13;4950171;28;20155;-77
2023/01/09 02:06:17;;;;;;;0.70;0.70;;;;;;;2.74;60.07;93542.38;4949957;28;20176;-77
2023/01/09 02:08:42;;;;;;;0.30;0.30;;;;;;;2.99;58.19;93548.19;4973612;28;20079;-78
2023/01/09 02:11:08;;;;;;;0.45;0.45;;;;;;;2.09;59.20;93553.28;4952245;28;20557;-77
2023/01/09 02:13:34;;;;;;;0.47;0.40;;;;;;;2.75;58.66;93542.19;4952422;28;20144;-77
2023/01/09 02:16:29;;;;;;;0.70;0.70;;;;;;;2.35;59.86;93546.84;4982019;28;20105;-77
2023/01/09 02:19:22;;;;;;;0.88;0.60;;;;;;;2.68;57.65;93543.91;4973784;28;20089;-77
2023/01/09 02:22:18;;;;;;;0.50;0.50;;;;;;;2.46;57.81;93541.16;4966553;28;20102;-77
2023/01/09 02:25:21;;;;;;;1.85;0.43;;;;;;;2.57;58.36;93542.53;4970248;28;20085;-77
2023/01/09 02:28:05;;;;;;;0.70;0.30;;;;;;;2.43;58.69;93552.03;4982516;28;20095;-77
2023/01/09 02:30:32;;;;;;;0.45;0.38;;;;;;;2.47;58.61;93561.19;4983184;28;20462;-77
2023/01/09 02:33:29;;;;;;;1.48;0.40;;;;;;;2.18;59.46;93543.53;4956819;28;20105;-77
2023/01/09 02:36:09;;;;;;;0.45;0.38;;;;;;;1.39;61.58;93568.94;4971608;28;20138;-77
2023/01/09 02:39:31;;;;;;;0.43;0.30;;;;;;;1.25;63.05;93568.66;4940960;28;20133;-78
2023/01/09 02:42:20;;;;;;;0.40;0.30;;;;;;;1.00;63.94;93563.50;4912232;28;20432;-78
2023/01/09 02:44:45;;;;;;;0.50;0.50;;;;;;;1.01;64.01;93553.84;4943197;28;20083;-78
2023/01/09 02:47:14;;;;;;;0.30;0.30;;;;;;;1.28;63.83;93560.47;4910272;28;20158;-78
2023/01/09 02:49:39;;;;;;;0.30;0.30;;;;;;;0.78;64.84;93550.13;4947337;28;20648;-78
2023/01/09 02:52:23;;;;;;;0.52;0.40;;;;;;;0.79;64.42;93551.75;4942639;28;20085;-78
2023/01/09 02:54:55;;;;;;;0.57;0.45;;;;;;;0.36;66.50;93551.19;4941119;28;20112;-78
2023/01/09 02:57:28;;;;;;;0.40;0.40;;;;;;;0.65;65.44;93558.50;4939825;29;20102;-78
2023/01/09 03:00:18;;;;;;;0.40;0.40;;;;;;;0.59;65.74;93565.22;4942755;29;20103;-78
2023/01/09 03:02:50;;;;;;;0.50;0.50;;;;;;;0.47;66.09;93569.19;4927300;29;20112;-78
2023/01/09 03:05:29;;;;;;;0.55;0.43;;;;;;;0.63;66.28;93568.34;4943494;28;20589;-78
2023/01/09 03:07:54;;;;;;;0.30;0.30;;;;;;;0.61;66.56;93572.94;4929679;29;20103;-78
2023/01/09 03:10:27;;;;;;;0.30;0.30;;;;;;;0.50;66.54;93570.66;4946249;28;20702;-78
2023/01/09 03:12:53;;;;;;;0.40;0.40;;;;;;;0.44;66.73;93562.47;4933526;28;20723;-78
2023/01/09 03:15:21;;;;;;;0.52;0.52;;;;;;;-0.19;68.63;93575.25;4949950;29;20076;-78
2023/01/09 03:17:47;;;;;;;0.52;0.52;;;;;;;0.20;67.47;93568.53;4935855;29;20106;-78
2023/01/09 03:20:15;;;;;;;0.30;0.30;;;;;;;0.08;68.06;93581.94;4957595;28;20269;-78
2023/01/09 03:22:47;;;;;;;1.02;0.60;;;;;;;0.44;67.31;93574.75;4962413;28;20135;-79
2023/01/09 03:25:14;;;;;;;0.65;0.60;;;;;;;0.08;68.22;93583.78;4955973;29;24926;-78
2023/01/09 03:27:39;;;;;;;0.50;0.50;;;;;;;0.32;67.29;93590.81;4964453;28;20082;-79
2023/01/09 03:30:05;;;;;;;0.93;0.45;;;;;;;0.77;65.88;93579.94;4945904;29;20088;-79
2023/01/09 03:32:30;;;;;;;0.60;0.60;;;;;;;0.32;67.61;93598.66;4944854;28;20079;-76
2023/01/09 03:34:56;;;;;;;0.57;0.57;;;;;;;0.44;67.28;93600.94;4961091;28;20114;-77
2023/01/09 03:37:21;;;;;;;1.05;0.68;;;;;;;0.64;67.00;93613.69;4961672;28;20111;-76
2023/01/09 03:39:47;;;;;;;0.75;0.70;;;;;;;0.85;65.87;93621.03;4992801;28;20196;-77
2023/01/09 03:42:12;;;;;;;1.45;0.90;;;;;;;0.32;68.20;93621.41;4996711;28;20190;-77
2023/01/09 03:44:38;;;;;;;1.10;0.93;;;;;;;0.48;66.99;93641.50;4988647;28;20094;-76
2023/01/09 03:47:03;;;;;;;2.05;0.80;;;;;;;0.04;69.30;93638.22;4992018;28;20085;-76
2023/01/09 03:49:28;;;;;;;5.20;1.13;;;;;;;0.57;67.13;93643.16;4998533;28;20169;-76
2023/01/09 03:51:54;;;;;;;1.95;1.00;;;;;;;0.69;66.91;93646.25;4987724;28;20102;-77
2023/01/09 03:54:19;;;;;;;3.00;1.00;;;;;;;0.00;69.55;93647.38;4998994;28;20110;-76
2023/01/09 03:56:44;;;;;;;0.90;0.90;;;;;;;-0.01;70.13;93650.97;4994832;28;20105;-77
2023/01/09 03:59:10;;;;;;;2.08;0.82;;;;;;;0.56;67.49;93654.63;4991870;28;20636;-77
2023/01/09 04:01:35;;;;;;;1.02;0.93;;;;;;;0.56;67.27;93664.28;4983454;28;20104;-76
2023/01/09 04:04:01;;;;;;;0.73;0.73;;;;;;;0.03;68.36;93672.38;4995482;28;20094;-76
2023/01/09 04:06:26;;;;;;;0.80;0.80;;;;;;;0.51;66.95;93654.28;4967628;28;20116;-77
2023/01/09 04:08:52;;;;;;;1.00;0.70;;;;;;;0.76;65.88;93662.16;4982753;28;20094;-77
2023/01/09 04:11:17;;;;;;;0.63;0.63;;;;;;;0.53;66.91;93668.03;4983043;28;20365;-76
2023/01/09 04:13:43;;;;;;;1.02;0.82;;;;;;;0.26;67.63;93667.38;4988863;28;20103;-76
2023/01/09 04:16:09;;;;;;;1.25;0.95;;;;;;;0.09;68.37;93674.38;5005244;28;20553;-76
2023/01/09 04:18:34;;;;;;;0.95;0.82;;;;;;;0.91;65.17;93659.66;4985444;28;20107;-77
2023/01/09 04:21:00;;;;;;;0.80;0.80;;;;;;;0.19;67.21;93669.81;4980933;28;20079;-76
2023/01/09 04:23:25;;;;;;;0.70;0.70;;;;;;;0.28;66.76;93670.63;4982766;28;20111;-76
2023/01/09 04:25:50;;;;;;;0.57;0.57;;;;;;;0.22;67.20;93687.00;4986924;28;20515;-76
2023/01/09 04:28:16;;;;;;;1.45;0.98;;;;;;;0.85;65.08;93684.72;4959639;28;20090;-76
2023/01/09 04:30:41;;;;;;;0.63;0.63;;;;;;;0.77;64.90;93683.91;4974991;28;20252;-76
2023/01/09 04:33:07;;;;;;;2.65;0.93;;;;;;;0.63;65.06;93682.78;4972857;28;20347;-76
2023/01/09 04:35:32;;;;;;;0.88;0.55;;;;;;;0.78;64.75;93686.38;4974687;28;20102;-76
2023/01/09 04:37:59;;;;;;;1.83;0.95;;;;;;;0.59;64.66;93683.09;4970619;28;20123;-76
2023/01/09 04:40:25;;;;;;;2.53;0.90;;;;;;;-0.22;66.46;93694.09;4971822;28;20078;-76
2023/01/09 04:42:50;;;;;;;0.60;0.60;;;;;;;0.75;63.86;93694.56;4976759;28;20111;-76
2023/01/09 04:45:16;;;;;;;0.70;0.70;;;;;;;1.03;63.21;93683.75;4949890;28;20691;-76
2023/01/09 04:47:41;;;;;;;0.98;0.85;;;;;;;0.78;63.07;93681.13;4971210;28;20489;-76
2023/01/09 04:50:08;;;;;;;0.82;0.80;;;;;;;0.61;64.07;93682.94;4964729;28;20606;-76
2023/01/09 04:52:33;;;;;;;0.80;0.80;;;;;;;0.61;64.68;93679.50;4975560;28;20087;-76
2023/01/09 04:54:59;;;;;;;1.33;1.23;;;;;;;1.32;62.30;93684.16;4954112;28;20120;-76
2023/01/09 04:57:25;;;;;;;1.23;0.80;;;;;;;1.14;63.38;93676.50;4959671;28;20121;-76
2023/01/09 04:59:51;;;;;;;1.13;0.75;;;;;;;1.23;63.02;93678.13;4958049;28;20161;-76
2023/01/09 05:02:16;;;;;;;0.65;0.65;;;;;;;1.32;62.68;93687.59;4960441;28;20515;-76
2023/01/09 05:04:42;;;;;;;0.90;0.90;;;;;;;1.45;61.98;93694.13;4991692;28;20372;-76
2023/01/09 05:07:07;;;;;;;1.88;1.38;;;;;;;1.35;62.33;93692.53;4991946;28;20106;-76
2023/01/09 05:09:33;;;;;;;0.60;0.60;;;;;;;1.09;63.01;93696.16;4990280;28;20107;-76
2023/01/09 05:11:58;;;;;;;1.67;1.20;;;;;;;0.95;62.07;93708.16;4961588;28;20234;-76
2023/01/09 05:14:24;;;;;;;1.88;1.30;;;;;;;1.22;62.34;93707.94;4995356;28;20133;-76
2023/01/09 05:16:49;;;;;;;1.88;1.38;;;;;;;0.80;62.83;93713.25;4962118;28;20160;-76
2023/01/09 05:19:14;;;;;;;1.08;0.90;;;;;;;1.07;62.29;93706.00;4990564;28;20079;-76
2023/01/09 05:21:40;;;;;;;1.80;1.20;;;;;;;1.01;63.22;93714.53;4982075;28;20105;-76
2023/01/09 05:24:05;;;;;;;1.35;1.23;;;;;;;0.76;63.01;93719.78;4989334;28;20095;-76
2023/01/09 05:26:31;;;;;;;1.90;1.08;;;;;;;1.33;62.10;93710.22;4966719;28;20107;-76
2023/01/09 05:28:56;;;;;;;2.03;0.90;;;;;;;1.05;62.60;93713.22;4982316;28;20082;-77
2023/01/09 05:31:22;;;;;;;1.05;1.05;;;;;;;1.41;61.36;93711.19;4974513;28;20527;-76
2023/01/09 05:33:47;;;;;;;1.55;1.40;;;;;;;0.68;63.85;93727.66;4968839;28;20104;-76
2023/01/09 05:36:13;;;;;;;1.63;1.20;;;;;;;0.82;63.27;93742.69;4983000;28;20085;-77
2023/01/09 05:38:38;;;;;;;2.05;1.33;;;;;;;0.67;63.70;93731.22;4952131;28;20126;-77
2023/01/09 05:41:04;;;;;;;1.67;0.68;;;;;;;0.76;63.45;93727.66;4965246;28;20096;-77
2023/01/09 05:43:29;;;;;;;2.70;1.60;;;;;;;0.67;63.62;93739.91;4969487;28;20189;-77
2023/01/09 05:45:54;;;;;;;3.17;1.00;;;;;;;0.05;66.15;93744.53;4952895;28;20634;-78
2023/01/09 05:48:20;;;;;;;0.70;0.70;;;;;;;0.59;63.77;93739.91;4983618;28;20133;-78
2023/01/09 05:50:45;;;;;;;0.80;0.75;;;;;;;0.78;62.88;93746.63;4956390;28;20105;-78
2023/01/09 05:53:11;;;;;;;2.55;1.00;;;;;;;0.64;62.99;93745.47;4967906;28;20086;-78
2023/01/09 05:55:36;;;;;;;1.13;1.00;;;;;;;0.75;62.22;93762.66;4982834;28;20081;-78
2023/01/09 05:58:02;;;;;;;4.80;1.00;;;;;;;0.99;62.08;93766.31;4982036;28;20156;-78
2023/01/09 06:00:27;;;;;;;2.28;1.10;;;;;;;1.18;61.47;93756.44;4974001;28;20075;-78
2023/01/09 06:02:52;;;;;;;2.85;1.70;;;;;;;0.96;62.35;93761.38;4982658;28;20467;-78
2023/01/09 06:05:18;;;;;;;3.42;0.80;;;;;;;0.84;61.99;93763.50;4970222;28;20296;-77
2023/01/09 06:07:43;;;;;;;1.17;0.93;;;;;;;0.87;61.88;93760.56;4977710;28;20082;-77
2023/01/09 06:10:12;;;;;;;0.70;0.70;;;;;;;0.62;62.07;93764.97;4995251;28;20109;-77
2023/01/09 06:12:38;;;;;;;1.73;1.13;;;;;;;1.01;61.80;93759.09;4970802;28;20085;-77
2023/01/09 06:15:03;;;;;;;2.78;1.05;;;;;;;1.18;60.27;93775.63;4967777;28;20431;-77
2023/01/09 06:17:29;;;;;;;2.90;0.93;;;;;;;0.10;62.98;93767.59;4954529;28;20134;-78
2023/01/09 06:19:54;;;;;;;3.05;1.02;;;;;;;0.50;62.54;93762.63;4987173;28;20133;-78
2023/01/09 06:22:20;;;;;;;2.45;1.25;;;;;;;-0.13;63.30;93772.59;4986507;28;20106;-77
2023/01/09 06:24:45;;;;;;;0.90;0.80;;;;;;;0.23;63.32;93767.16;4978223;28;20114;-77
2023/01/09 06:27:11;;;;;;;2.65;0.93;;;;;;;-0.21;64.40;93782.03;4983841;28;20129;-77
2023/01/09 06:29:37;;;;;;;4.32;1.48;;;;;;;-0.24;65.49;93776.31;4967416;28;20567;-77
2023/01/09 06:32:03;;;;;;;14.57;8.57;;;;;;;0.19;64.30;93785.00;4968493;28;20071;-77
2023/01/09 06:34:28;;;;;;;8.30;3.25;;;;;;;0.03;64.91;93774.44;4982400;28;20115;-77
2023/01/09 06:36:53;;;;;;;5.75;2.90;;;;;;;0.91;61.63;93785.44;4951551;28;20093;-77
2023/01/09 06:39:19;;;;;;;19.65;8.90;;;;;;;1.35;61.20;93781.69;4975021;28;20130;-78
2023/01/09 06:41:44;;;;;;;4.25;2.35;;;;;;;1.16;61.61;93785.44;4955737;28;20193;-78
2023/01/09 06:44:10;;;;;;;3.22;2.10;;;;;;;0.77;62.15;93779.06;4983068;28;20418;-77
2023/01/09 06:46:35;;;;;;;2.58;1.70;;;;;;;0.25;62.86;93788.78;4979137;28;20105;-65
2023/01/09 06:49:00;;;;;;;3.95;1.85;;;;;;;0.09;63.75;93792.13;4978533;28;20098;-65
2023/01/09 06:51:26;;;;;;;3.08;1.77;;;;;;;0.68;62.33;93790.50;4980150;28;20083;-65
2023/01/09 06:53:51;;;;;;;7.70;2.00;;;;;;;-0.57;65.06;93803.09;4979023;28;20366;-65
2023/01/09 06:56:17;;;;;;;3.72;2.10;;;;;;;0.38;63.48;93795.34;4978114;28;20540;-65
2023/01/09 06:58:42;;;;;;;4.95;1.67;;;;;;;0.17;64.16;93797.41;4962500;28;20132;-65
2023/01/09 07:01:08;;;;;;;2.88;1.38;;;;;;;0.56;62.92;93796.06;4961423;28;20117;-65
2023/01/09 07:03:33;;;;;;;3.30;1.77;;;;;;;-0.19;64.68;93801.00;4971102;28;20101;-65
2023/01/09 07:05:58;;;;;;;5.50;1.77;;;;;;;-0.28;65.16;93811.56;4979941;28;20189;-65
2023/01/09 07:08:24;;;;;;;6.30;1.70;;;;;;;0.19;63.55;93808.56;4973748;28;20081;-65
2023/01/09 07:10:49;;;;;;;3.65;1.58;;;;;;;-0.58;66.33;93810.09;4975349;28;20107;-65
2023/01/09 07:13:15;;;;;;;2.28;1.08;;;;;;;0.12;64.35;93812.78;4980403;28;20195;-65
2023/01/09 07:15:40;;;;;;;2.28;0.88;;;;;;;0.33;63.66;93801.06;4979468;28;20562;-65
2023/01/09 07:18:05;;;;;;;2.58;1.17;;;;;;;0.59;62.92;93808.81;4978160;28;20108;-65
2023/01/09 07:20:31;;;;;;;3.05;1.13;;;;;;;0.01;64.88;93819.09;4979484;28;20076;-65
2023/01/09 07:22:56;;;;;;;2.17;1.17;;;;;;;0.70;63.15;93819.97;4979434;28;20103;-65
2023/01/09 07:25:22;;;;;;;4.00;2.08;;;;;;;0.09;65.52;93820.94;4974023;28;20426;-65
2023/01/09 07:27:47;;;;;;;3.85;1.15;;;;;;;0.09;65.72;93826.16;4976234;28;20080;-65
2023/01/09 07:30:13;;;;;;;2.63;1.33;;;;;;;0.27;64.65;93833.91;4962807;28;20482;-65
2023/01/09 07:32:39;;;;;;;5.45;1.50;;;;;;;-0.19;64.92;93826.34;4970476;28;20527;-65
2023/01/09 07:35:06;;;;;;;2.40;1.30;;;;;;;0.02;65.51;93822.53;4982553;28;20192;-65
2023/01/09 07:37:33;;;;;;;2.28;1.20;;;;;;;-0.41;66.15;93832.94;4980363;28;20106;-65
2023/01/09 07:39:58;;;;;;;6.45;1.60;;;;;;;0.17;65.09;93833.25;4968729;28;20119;-65
2023/01/09 07:42:23;;;;;;;1.60;1.50;;;;;;;-0.03;66.10;93835.28;4982038;28;20106;-65
2023/01/09 07:44:49;;;;;;;2.97;2.13;;;;;;;0.05;64.66;93851.84;4982615;28;20097;-65
2023/01/09 07:47:14;;;;;;;8.20;3.67;;;;;;;0.45;63.86;93838.25;4981330;28;20080;-65
2023/01/09 07:49:40;;;;;;;4.93;1.98;;;;;;;0.42;64.01;93835.94;4982555;28;20185;-65
2023/01/09 07:52:06;;;;;;;6.85;3.92;;;;;;;0.89;63.12;93846.88;4981250;28;20129;-65
2023/01/09 07:54:31;;;;;;;9.57;6.32;;;;;;;0.55;63.37;93849.41;4982470;28;20109;-65
2023/01/09 07:56:56;;;;;;;8.77;4.90;;;;;;;0.96;62.70;93845.25;4981360;28;20082;-65
2023/01/09 07:59:22;;;;;;;5.35;3.20;;;;;;;0.85;63.44;93857.66;4982881;28;20680;-65
2023/01/09 08:01:47;;;;;;;3.20;1.77;;;;;;;0.06;65.49;93853.47;4967223;28;20110;-65
2023/01/09 08:04:13;;;;;;;4.35;2.00;;;;;;;0.77;64.08;93851.59;4983162;28;20093;-66
2023/01/09 08:06:38;;;;;;;5.00;1.88;;;;;;;0.61;63.82;93844.53;4978356;28;20703;-65
2023/01/09 08:09:03;;;;;;;1.92;1.23;;;;;;;0.52;64.16;93864.63;4982656;28;20086;-65
2023/01/09 08:11:29;;;;;;;4.03;1.80;;;;;;;0.25;64.01;93863.84;4982279;28;20096;-65
2023/01/09 08:13:54;;;;;;;2.83;1.55;;;;;;;0.95;62.26;93862.75;4979564;28;20102;-65
2023/01/09 08:16:20;;;;;;;2.42;1.45;;;;;;;1.63;60.36;93872.31;4982784;28;20676;-65
2023/01/09 08:18:45;;;;;;;3.22;1.15;;;;;;;0.40;64.41;93870.13;4974175;28;20104;-65
2023/01/09 08:21:11;;;;;;;2.45;1.33;;;;;;;-0.46;68.01;93872.59;4977301;28;21620;-65
2023/01/09 08:23:36;;;;;;;2.10;1.27;;;;;;;0.34;64.50;93862.91;4981070;28;20089;-65
2023/01/09 08:26:02;;;;;;;8.75;4.75;;;;;;;0.34;64.13;93860.28;4980635;28;20434;-65
2023/01/09 08:28:28;;;;;;;9.88;6.80;;;;;;;0.29;65.12;93866.00;4966744;28;20087;-65
2023/01/09 08:30:53;;;;;;;9.00;5.45;;;;;;;-0.21;64.83;93878.81;4981726;28;20108;-65
2023/01/09 08:33:19;;;;;;;5.80;3.03;;;;;;;0.53;63.04;93869.69;4979027;28;20105;-65
2023/01/09 08:35:44;;;;;;;16.60;11.27;;;;;;;-0.20;65.51;93877.03;4980841;28;20071;-65
2023/01/09 08:38:10;;;;;;;9.10;6.20;;;;;;;0.18;64.35;93863.66;4979394;28;20452;-65
2023/01/09 08:40:35;;;;;;;4.55;3.38;;;;;;;0.59;63.36;93863.00;4979530;28;20083;-65
2023/01/09 08:48:28;;;;;;;0.65;0.60;;;;;;;0.13;65.13;93876.38;4964520;28;20088;-65
2023/01/09 08:50:53;;;;;;;1.58;1.10;;;;;;;-0.88;66.70;93897.59;4980784;28;20106;-65
2023/01/09 08:53:19;;;;;;;2.15;1.08;;;;;;;-0.89;66.79;93882.88;4981540;28;20581;-65
2023/01/09 08:55:44;;;;;;;1.30;0.57;;;;;;;0.49;63.76;93881.47;4972778;28;20099;-65
2023/01/09 08:58:10;;;;;;;2.05;0.93;;;;;;;1.04;61.69;93874.09;4979588;28;20445;-65
2023/01/09 09:00:35;;;;;;;4.53;3.20;;;;;;;0.71;63.62;93866.13;4980776;28;20128;-66
2023/01/09 09:03:01;;;;;;;1.70;1.20;;;;;;;-0.08;65.13;93869.75;4981235;28;20103;-65
2023/01/09 09:05:27;;;;;;;4.05;1.98;;;;;;;0.73;63.49;93845.84;4966378;28;20553;-65
2023/01/09 09:07:53;;;;;;;0.73;0.73;;;;;;;0.84;62.67;93868.31;4980295;28;20409;-66
2023/01/09 09:10:19;;;;;;;5.50;3.00;;;;;;;1.48;60.51;93864.28;4973208;28;20100;-66
2023/01/09 09:12:47;;;;;;;1.48;0.70;;;;;;;0.95;61.52;93877.66;4979280;28;20083;-66
2023/01/09 09:15:12;;;;;;;4.55;1.33;;;;;;;0.57;62.72;93883.28;4979172;28;20097;-66
2023/01/09 09:17:41;;;;;;;2.15;0.88;;;;;;;0.51;62.99;93895.22;4978532;28;20161;-66
2023/01/09 09:20:08;;;;;;;;;;;;;;;1.69;60.41;93876.91;4966622;28;20077;-66
2023/01/09 09:22:34;;;;;;;2.25;1.33;;;;;;;0.80;61.27;93877.47;4981759;28;19993;-66
2023/01/09 09:24:59;;;;;;;3.60;1.27;;;;;;;1.08;60.95;93874.56;4979879;28;20111;-66
2023/01/09 09:27:25;;;;;;;1.77;1.63;;;;;;;0.87;61.79;93880.25;4961595;28;20099;-66
2023/01/09 09:29:50;;;;;;;3.97;1.70;;;;;;;-0.57;67.14;93886.75;4978006;28;20099;-66
2023/01/09 09:32:16;;;;;;;2.22;1.23;;;;;;;0.43;63.57;93872.44;4980625;28;20085;-66
2023/01/09 09:34:41;;;;;;;2.13;1.13;;;;;;;0.71;63.29;93871.38;4968568;28;20106;-66
2023/01/09 09:37:06;;;;;;;3.60;1.52;;;;;;;-0.23;65.18;93896.47;4978866;28;20570;-66
2023/01/09 09:39:32;;;;;;;6.88;2.08;;;;;;;-0.23;66.45;93891.22;4981845;28;20121;-66
2023/01/09 09:45:24;;;;;;;7.55;3.88;;;;;;;0.14;66.01;93891.94;4980253;28;20492;-66
2023/01/09 09:48:20;;;;;;;2.92;1.35;;;;;;;0.61;63.50;93873.34;4973345;28;20082;-66
2023/01/09 09:51:03;;;;;;;4.30;1.40;;;;;;;0.24;64.19;93897.06;4977058;28;20617;-66
2023/01/09 09:53:39;;;;;;;4.43;2.20;;;;;;;0.59;64.54;93894.44;4961348;28;20107;-66
2023/01/09 09:56:04;;;;;;;3.67;1.20;;;;;;;0.65;63.67;93906.09;4970375;28;20485;-66
2023/01/09 09:58:34;;;;;;;3.70;1.30;;;;;;;0.84;62.95;93887.47;4969670;28;20109;-66
2023/01/09 10:01:00;;;;;;;5.68;4.22;;;;;;;1.37;61.53;93899.53;4978187;28;20130;-66
2023/01/09 10:03:27;;;;;;;4.70;1.23;;;;;;;1.33;61.42;93903.47;4956882;28;20498;-66
2023/01/09 10:05:52;;;;;;;3.28;1.88;;;;;;;1.37;60.74;93902.94;4967414;28;20233;-66
2023/01/09 10:08:43;;;;;;;5.75;2.67;;;;;;;1.81;59.26;93898.38;4958407;28;20556;-66
2023/01/09 10:11:16;;;;;;;3.40;2.35;;;;;;;1.56;60.59;93894.94;4978732;28;20107;-66
2023/01/09 10:16:41;;;;;;;21.27;11.77;;;;;;;1.52;60.17;93902.31;4978420;28;20085;-66
2023/01/09 10:19:30;;;;;;;11.73;7.50;;;;;;;1.56;60.93;93902.81;4968203;28;20115;-66
2023/01/09 10:22:23;;;;;;;6.65;3.40;;;;;;;0.51;63.70;93907.50;4942171;28;20694;-66
2023/01/09 10:25:11;;;;;;;4.55;2.28;;;;;;;1.02;61.56;93897.00;4979944;28;20099;-66
2023/01/09 10:28:01;;;;;;;4.10;1.90;;;;;;;1.40;61.16;93893.94;4962387;28;20102;-66
2023/01/09 10:30:30;;;;;;;2.10;0.95;;;;;;;1.12;61.79;93891.63;4981040;28;20381;-66
2023/01/09 10:33:23;;;;;;;5.90;1.13;;;;;;;1.53;61.25;93887.41;4966224;28;20068;-65
2023/01/09 10:35:51;;;;;;;13.88;8.18;;;;;;;1.58;61.95;93879.88;4978853;28;20292;-66
2023/01/09 10:38:25;;;;;;;2.50;1.23;;;;;;;0.80;62.62;93896.63;4973060;28;20130;-65
2023/01/09 10:40:55;;;;;;;3.08;1.10;;;;;;;1.27;61.16;93894.44;4969586;28;20126;-66
2023/01/09 10:43:44;;;;;;;3.20;1.42;;;;;;;0.36;64.04;93884.53;4965360;28;20144;-65
2023/01/09 10:46:14;;;;;;;1.42;0.70;;;;;;;0.00;66.02;93895.94;4965064;28;20712;-66
2023/01/09 10:48:44;;;;;;;3.70;2.13;;;;;;;-0.13;66.04;93913.88;4955599;28;20084;-65
2023/01/09 10:51:21;;;;;;;4.93;2.85;;;;;;;-0.19;65.97;93887.31;4946612;28;20848;-66
2023/01/09 10:53:51;;;;;;;10.68;5.07;;;;;;;0.52;63.94;93899.50;4964257;28;20580;-66
2023/01/09 10:56:29;;;;;;;3.75;1.42;;;;;;;0.92;62.80;93897.16;4970279;28;20086;-65
2023/01/09 10:58:55;;;;;;;0.93;0.90;;;;;;;0.93;63.01;93896.19;4977522;28;20105;-66
2023/01/09 11:01:24;;;;;;;2.97;1.20;;;;;;;0.54;64.36;93901.94;4967250;28;20105;-66
2023/01/09 11:03:50;;;;;;;5.93;2.03;;;;;;;0.53;64.63;93895.06;4962040;28;20099;-66
2023/01/09 11:06:31;;;;;;;3.65;1.50;;;;;;;0.71;64.04;93903.66;4972182;28;20275;-66
2023/01/09 11:08:57;;;;;;;3.47;1.55;;;;;;;1.17;62.46;93904.25;4947193;28;20078;-65
2023/01/09 11:11:31;;;;;;;0.80;0.80;;;;;;;0.76;62.88;93908.41;4952136;28;20478;-65
2023/01/09 11:14:13;;;;;;;1.80;1.20;;;;;;;0.83;62.87;93892.88;4965786;28;20199;-66
2023/01/09 11:16:53;;;;;;;2.03;0.80;;;;;;;0.90;62.89;93900.91;4980719;28;20517;-66
2023/01/09 11:19:18;;;;;;;4.05;1.35;;;;;;;0.80;62.78;93896.63;4955881;28;20543;-66
2023/01/09 11:21:43;;;;;;;0.75;0.68;;;;;;;1.36;60.63;93896.06;4951663;28;20160;-66
2023/01/09 11:24:18;;;;;;;3.17;1.52;;;;;;;2.01;58.97;93895.44;4985427;28;20476;-66
2023/01/09 11:27:28;;;;;;;5.10;0.93;;;;;;;1.18;61.08;93909.31;4982419;28;20169;-66
2023/01/09 11:30:19;;;;;;;11.63;4.25;;;;;;;1.09;61.01;93911.09;4909743;29;20184;-66
2023/01/09 11:32:44;;;;;;;1.58;0.70;;;;;;;1.62;59.63;93925.78;4980285;28;20520;-66
2023/01/09 11:35:21;;;;;;;2.55;1.52;;;;;;;1.23;60.59;93921.97;4956607;28;20108;-66
2023/01/09 11:37:47;;;;;;;24.35;16.48;;;;;;;1.65;59.87;93911.50;4962656;28;20284;-66
2023/01/09 11:40:17;;;;;;;3.88;2.42;;;;;;;1.14;60.71;93925.53;4994687;28;20074;-66
2023/01/09 11:43:13;;;;;;;13.75;8.15;;;;;;;2.21;58.76;93918.69;4986868;28;20103;-66
2023/01/09 11:45:44;;;;;;;1.17;0.90;;;;;;;0.92;61.79;93933.03;4968275;28;20218;-66
2023/01/09 11:48:37;;;;;;;6.63;2.13;;;;;;;1.91;59.26;93927.09;4938290;28;20072;-66
2023/01/09 11:51:16;;;;;;;1.20;1.10;;;;;;;1.44;60.47;93923.28;4987312;28;20648;-66
2023/01/09 11:54:04;;;;;;;6.40;4.00;;;;;;;1.90;58.03;93928.06;4990562;28;20708;-66
2023/01/09 11:56:30;;;;;;;2.05;1.30;;;;;;;1.20;61.06;93917.84;4993038;28;20088;-66
2023/01/09 11:58:55;;;;;;;2.50;0.88;;;;;;;2.06;58.72;93914.13;4974574;28;20125;-66
2023/01/09 12:01:26;;;;;;;4.25;1.50;;;;;;;1.49;59.47;93921.00;4976493;28;20100;-66
2023/01/09 12:04:10;;;;;;;2.42;0.85;;;;;;;1.71;58.86;93914.28;4975129;28;20093;-66
2023/01/09 12:06:49;;;;;;;1.75;0.90;;;;;;;1.91;58.62;93911.34;4976913;28;20640;-77